Time;durP1;ratioP1;P1;durP2;ratioP2;P2;SDS_P1;SDS_P2;PMS_P1;PMS_P2;Temp;Humidity;BMP_temperature;BMP_pressure;BME280_temperature;BME280_humidity;BME280_pressure;Samples;Min_cycle;Max_cycle;Signal;HPM_P1;HPM_P2
2022/09/29 00:00:00;;;;;;;2.83;2.25;;;;;;;;;;5024005;28;20061;-90
2022/09/29 00:02:26;;;;;;;3.75;1.95;;;;;;;;;;5024060;28;20050;-90
2022/09/29 00:04:53;;;;;;;3.97;2.17;;;;;;;;;;5024138;28;20074;-91
2022/09/29 00:07:21;;;;;;;2.75;2.03;;;;;;;;;;5024264;28;20077;-91
2022/09/29 00:09:47;;;;;;;4.90;2.95;;;;;;;;;;5023896;28;20552;-91
2022/09/29 00:12:14;;;;;;;3.35;3.05;;;;;;;;;;5024365;28;20104;-90
2022/09/29 00:14:40;;;;;;;3.25;2.95;;;;;;;;;;5023800;28;20157;-91
2022/09/29 00:17:07;;;;;;;3.20;2.97;;;;;;;;;;5024593;28;20080;-91
2022/09/29 00:19:33;;;;;;;3.35;2.45;;;;;;;;;;5020997;28;20657;-91
2022/09/29 00:22:00;;;;;;;3.38;3.05;;;;;;;;;;5022878;28;20899;-91
2022/09/29 00:24:28;;;;;;;3.38;3.10;;;;;;;;;;5023954;28;20056;-90
2022/09/29 00:26:55;;;;;;;2.95;2.45;;;;;;;;;;5024863;28;20049;-91
2022/09/29 00:29:21;;;;;;;5.28;2.72;;;;;;;;;;5023260;28;20096;-91
2022/09/29 00:31:48;;;;;;;3.35;2.50;;;;;;;;;;5023733;28;20058;-91
2022/09/29 00:34:14;;;;;;;3.47;2.55;;;;;;;;;;5022649;28;20046;-90
2022/09/29 00:36:41;;;;;;;3.33;3.00;;;;;;;;;;5021449;28;20050;-90
2022/09/29 00:39:07;;;;;;;3.75;2.67;;;;;;;;;;5023198;28;20109;-91
2022/09/29 00:41:36;;;;;;;3.88;2.03;;;;;;;;;;5023164;28;20557;-91
2022/09/29 00:44:04;;;;;;;4.32;4.03;;;;;;;;;;5016468;28;20108;-90
2022/09/29 00:46:37;;;;;;;4.32;3.25;;;;;;;;;;5003960;28;20099;-90
2022/09/29 00:49:05;;;;;;;7.57;3.13;;;;;;;;;;5003226;28;20070;-91
2022/09/29 00:51:33;;;;;;;3.15;2.85;;;;;;;;;;5004980;28;20050;-92
2022/09/29 00:54:00;;;;;;;2.28;2.00;;;;;;;;;;5022545;28;20073;-91
2022/09/29 00:56:27;;;;;;;8.10;2.90;;;;;;;;;;5023532;28;20072;-91
2022/09/29 00:58:56;;;;;;;2.35;2.05;;;;;;;;;;5023452;28;20085;-91
2022/09/29 01:01:23;;;;;;;3.20;2.90;;;;;;;;;;5023173;28;20046;-90
2022/09/29 01:03:52;;;;;;;2.17;1.83;;;;;;;;;;5023099;28;20042;-92
2022/09/29 01:06:21;;;;;;;2.58;2.38;;;;;;;;;;5023287;28;20113;-91
2022/09/29 01:08:51;;;;;;;3.22;3.00;;;;;;;;;;5022579;28;20046;-91
2022/09/29 01:11:20;;;;;;;4.68;3.35;;;;;;;;;;5022747;28;20057;-91
2022/09/29 01:13:47;;;;;;;3.80;2.97;;;;;;;;;;5019935;28;20058;-91
2022/09/29 01:16:15;;;;;;;3.92;3.63;;;;;;;;;;5003423;28;20046;-91
2022/09/29 01:18:42;;;;;;;4.57;2.95;;;;;;;;;;5002939;28;20046;-91
2022/09/29 01:21:13;;;;;;;3.22;2.92;;;;;;;;;;5003513;28;20047;-91
2022/09/29 01:23:54;;;;;;;6.60;3.13;;;;;;;;;;5011166;28;20053;-91
2022/09/29 01:26:38;;;;;;;4.60;3.42;;;;;;;;;;5021600;28;20046;-91
2022/09/29 01:29:13;;;;;;;4.68;3.35;;;;;;;;;;5014152;28;20045;-90
2022/09/29 01:31:44;;;;;;;3.72;3.40;;;;;;;;;;5021239;28;20046;-90
2022/09/29 01:34:15;;;;;;;3.65;3.42;;;;;;;;;;5022336;28;20099;-90
2022/09/29 01:36:48;;;;;;;5.63;2.97;;;;;;;;;;5022087;28;20046;-90
2022/09/29 01:39:20;;;;;;;2.25;1.90;;;;;;;;;;5022717;28;20104;-90
2022/09/29 01:41:50;;;;;;;2.78;2.58;;;;;;;;;;5023200;28;20106;-90
2022/09/29 01:44:19;;;;;;;4.93;2.67;;;;;;;;;;5021636;28;20042;-91
2022/09/29 01:46:50;;;;;;;4.53;3.53;;;;;;;;;;5022336;28;20069;-90
2022/09/29 01:49:17;;;;;;;2.50;2.28;;;;;;;;;;5022726;28;20049;-90
2022/09/29 01:51:47;;;;;;;3.33;2.60;;;;;;;;;;5022905;28;20049;-90
2022/09/29 01:54:15;;;;;;;5.95;3.53;;;;;;;;;;5017294;28;20518;-91
2022/09/29 01:56:44;;;;;;;3.40;3.10;;;;;;;;;;5008931;28;20084;-91
2022/09/29 01:59:13;;;;;;;2.95;2.70;;;;;;;;;;5021490;28;20883;-90
2022/09/29 02:01:42;;;;;;;3.42;3.13;;;;;;;;;;5021457;28;20080;-91
2022/09/29 02:04:14;;;;;;;4.38;2.45;;;;;;;;;;5022145;28;20073;-91
2022/09/29 02:06:46;;;;;;;3.65;2.22;;;;;;;;;;5022861;28;20120;-91
2022/09/29 02:09:15;;;;;;;3.20;2.95;;;;;;;;;;5022430;28;20045;-91
2022/09/29 02:11:42;;;;;;;3.65;3.35;;;;;;;;;;5021779;28;20042;-90
2022/09/29 02:14:12;;;;;;;3.53;3.22;;;;;;;;;;5020761;28;20054;-90
2022/09/29 02:16:42;;;;;;;3.97;3.67;;;;;;;;;;5019562;28;20109;-90
2022/09/29 02:19:14;;;;;;;2.97;2.65;;;;;;;;;;5021630;28;20042;-90
2022/09/29 02:21:40;;;;;;;3.15;2.25;;;;;;;;;;5022169;28;20485;-90
2022/09/29 02:24:07;;;;;;;3.50;3.17;;;;;;;;;;5021007;28;20050;-90
2022/09/29 02:26:34;;;;;;;2.95;2.33;;;;;;;;;;5020982;28;20108;-90
2022/09/29 02:29:01;;;;;;;3.35;3.05;;;;;;;;;;5021507;28;20124;-90
2022/09/29 02:31:28;;;;;;;3.25;2.78;;;;;;;;;;5022226;28;20046;-91
2022/09/29 02:33:54;;;;;;;5.03;2.50;;;;;;;;;;5022082;28;20053;-90
2022/09/29 02:36:27;;;;;;;3.22;2.88;;;;;;;;;;5021909;28;20568;-90
2022/09/29 02:38:56;;;;;;;4.03;3.17;;;;;;;;;;5021806;28;20121;-90
2022/09/29 02:41:31;;;;;;;3.53;2.95;;;;;;;;;;5020447;28;20046;-90
2022/09/29 02:44:16;;;;;;;3.65;3.35;;;;;;;;;;5021193;28;20050;-90
2022/09/29 02:46:47;;;;;;;4.95;3.97;;;;;;;;;;5016000;28;20050;-91
2022/09/29 02:49:27;;;;;;;4.93;3.13;;;;;;;;;;5020833;28;20045;-90
2022/09/29 02:51:58;;;;;;;3.78;3.47;;;;;;;;;;5020894;28;20050;-90
2022/09/29 02:54:35;;;;;;;3.70;2.72;;;;;;;;;;5020098;28;20110;-91
2022/09/29 02:57:08;;;;;;;3.20;2.88;;;;;;;;;;5020538;28;20053;-91
2022/09/29 02:59:37;;;;;;;2.50;2.30;;;;;;;;;;5020859;28;20103;-91
2022/09/29 03:02:03;;;;;;;3.28;3.00;;;;;;;;;;5021057;28;20046;-91
2022/09/29 03:04:30;;;;;;;5.30;3.95;;;;;;;;;;5020964;28;20054;-91
2022/09/29 03:06:58;;;;;;;4.00;2.35;;;;;;;;;;5021532;28;20104;-91
2022/09/29 03:09:25;;;;;;;3.42;3.13;;;;;;;;;;5020713;28;20119;-91
2022/09/29 03:11:51;;;;;;;3.10;2.88;;;;;;;;;;5020622;28;20041;-91
2022/09/29 03:14:18;;;;;;;4.53;4.22;;;;;;;;;;5020820;28;20054;-91
2022/09/29 03:16:44;;;;;;;4.43;4.13;;;;;;;;;;5020308;28;20050;-90
2022/09/29 03:19:10;;;;;;;3.83;3.53;;;;;;;;;;5021007;28;20050;-91
2022/09/29 03:21:37;;;;;;;3.10;2.42;;;;;;;;;;5020800;28;20057;-91
2022/09/29 03:24:05;;;;;;;4.63;4.30;;;;;;;;;;5020745;28;20050;-90
2022/09/29 03:26:32;;;;;;;2.47;2.05;;;;;;;;;;5020183;28;20133;-90
2022/09/29 03:28:59;;;;;;;3.03;2.30;;;;;;;;;;5021206;28;20100;-91
2022/09/29 03:31:25;;;;;;;2.20;1.95;;;;;;;;;;5021164;28;20061;-90
2022/09/29 03:33:52;;;;;;;5.57;3.33;;;;;;;;;;5020873;28;20089;-90
2022/09/29 03:36:18;;;;;;;3.17;2.65;;;;;;;;;;5020068;28;20748;-91
2022/09/29 03:38:46;;;;;;;2.42;1.92;;;;;;;;;;5020024;28;20497;-90
2022/09/29 03:41:14;;;;;;;4.18;2.08;;;;;;;;;;5021092;28;20110;-90
2022/09/29 03:43:40;;;;;;;5.63;3.05;;;;;;;;;;5021116;28;20114;-91
2022/09/29 03:46:07;;;;;;;5.15;3.78;;;;;;;;;;5019834;28;20100;-90
2022/09/29 03:48:34;;;;;;;3.00;2.70;;;;;;;;;;5020274;28;20049;-91
2022/09/29 03:51:00;;;;;;;4.10;3.70;;;;;;;;;;5019828;28;20076;-90
2022/09/29 03:53:27;;;;;;;3.15;2.85;;;;;;;;;;5022126;28;20050;-91
2022/09/29 03:55:53;;;;;;;2.78;2.55;;;;;;;;;;5023299;28;20054;-91
2022/09/29 03:58:21;;;;;;;2.92;2.70;;;;;;;;;;5024729;28;20050;-91
2022/09/29 04:00:48;;;;;;;3.55;3.20;;;;;;;;;;5023847;28;20054;-90
2022/09/29 04:03:14;;;;;;;3.25;2.95;;;;;;;;;;5017649;28;20050;-90
2022/09/29 04:05:41;;;;;;;4.03;3.55;;;;;;;;;;5021747;28;20049;-91
2022/09/29 04:08:07;;;;;;;3.33;3.03;;;;;;;;;;5024702;28;20077;-90
2022/09/29 04:10:34;;;;;;;3.83;2.72;;;;;;;;;;5022564;28;20038;-91
2022/09/29 04:13:00;;;;;;;3.65;3.35;;;;;;;;;;5024248;28;20054;-90
2022/09/29 04:15:28;;;;;;;3.10;2.53;;;;;;;;;;5022012;28;20915;-91
2022/09/29 04:17:55;;;;;;;3.72;3.42;;;;;;;;;;5024172;28;20054;-91
2022/09/29 04:20:21;;;;;;;3.55;3.25;;;;;;;;;;5024427;28;20108;-90
2022/09/29 04:22:48;;;;;;;3.45;2.88;;;;;;;;;;5023598;28;20576;-90
2022/09/29 04:25:14;;;;;;;3.00;2.70;;;;;;;;;;5021890;28;20328;-91
2022/09/29 04:27:41;;;;;;;4.07;3.33;;;;;;;;;;5022988;28;20056;-91
2022/09/29 04:30:08;;;;;;;4.20;3.80;;;;;;;;;;5023102;28;20041;-92
2022/09/29 04:32:36;;;;;;;3.80;3.50;;;;;;;;;;5023064;28;20108;-91
2022/09/29 04:35:02;;;;;;;3.95;3.58;;;;;;;;;;5022875;28;20050;-91
2022/09/29 04:37:30;;;;;;;2.50;2.17;;;;;;;;;;5023021;28;20058;-91
2022/09/29 04:39:56;;;;;;;3.47;3.17;;;;;;;;;;5024876;28;20077;-91
2022/09/29 04:42:23;;;;;;;2.20;2.00;;;;;;;;;;5024209;28;20042;-91
2022/09/29 04:44:50;;;;;;;3.75;3.42;;;;;;;;;;5022096;28;20117;-91
2022/09/29 04:47:16;;;;;;;4.75;3.03;;;;;;;;;;5023510;28;20046;-91
2022/09/29 04:49:44;;;;;;;2.65;2.42;;;;;;;;;;5024267;28;20816;-92
2022/09/29 04:52:11;;;;;;;4.10;3.60;;;;;;;;;;5024043;28;20053;-91
2022/09/29 04:54:38;;;;;;;4.35;3.67;;;;;;;;;;5023239;28;20085;-91
2022/09/29 04:57:04;;;;;;;7.85;4.32;;;;;;;;;;5022017;28;20050;-91
2022/09/29 04:59:31;;;;;;;4.53;4.13;;;;;;;;;;5004225;28;20077;-91
2022/09/29 05:01:57;;;;;;;6.13;5.10;;;;;;;;;;5015877;28;20069;-91
2022/09/29 05:04:24;;;;;;;5.35;4.43;;;;;;;;;;5011006;28;20636;-90
2022/09/29 05:06:52;;;;;;;3.40;3.03;;;;;;;;;;5014644;28;20038;-91
2022/09/29 05:09:18;;;;;;;5.30;3.85;;;;;;;;;;5012874;28;20116;-92
2022/09/29 05:11:45;;;;;;;3.50;3.22;;;;;;;;;;5011864;28;20061;-91
2022/09/29 05:14:11;;;;;;;3.25;2.63;;;;;;;;;;5013507;28;20104;-90
2022/09/29 05:16:38;;;;;;;4.18;3.45;;;;;;;;;;5011232;28;20061;-91
2022/09/29 05:19:04;;;;;;;3.42;2.58;;;;;;;;;;5015930;28;20457;-91
2022/09/29 05:21:31;;;;;;;4.57;3.08;;;;;;;;;;5014247;28;20047;-91
2022/09/29 05:23:59;;;;;;;4.13;3.72;;;;;;;;;;5011905;28;20065;-92
2022/09/29 05:26:25;;;;;;;2.92;2.72;;;;;;;;;;5015128;28;20328;-91
2022/09/29 05:28:52;;;;;;;3.65;2.75;;;;;;;;;;5022363;28;20050;-91
2022/09/29 05:31:18;;;;;;;4.68;4.28;;;;;;;;;;5022460;28;20050;-92
2022/09/29 05:33:45;;;;;;;5.93;3.05;;;;;;;;;;5011938;28;20105;-91
2022/09/29 05:36:12;;;;;;;4.10;3.80;;;;;;;;;;5011865;28;20054;-91
2022/09/29 05:38:38;;;;;;;5.32;2.83;;;;;;;;;;5021455;28;20115;-91
2022/09/29 05:41:07;;;;;;;4.30;3.67;;;;;;;;;;5015721;28;20136;-91
2022/09/29 05:43:34;;;;;;;5.15;4.07;;;;;;;;;;5006367;28;20069;-91
2022/09/29 05:46:01;;;;;;;5.38;4.53;;;;;;;;;;5022596;28;20050;-91
2022/09/29 05:48:29;;;;;;;6.28;5.75;;;;;;;;;;5022632;28;20077;-90
2022/09/29 05:50:55;;;;;;;11.50;5.40;;;;;;;;;;5021219;28;20124;-91
2022/09/29 05:53:22;;;;;;;6.97;4.93;;;;;;;;;;5009075;28;20046;-91
2022/09/29 05:55:48;;;;;;;7.05;5.68;;;;;;;;;;5019258;28;20049;-91
2022/09/29 05:58:16;;;;;;;6.90;6.20;;;;;;;;;;5020675;28;20050;-91
2022/09/29 06:00:43;;;;;;;7.40;5.25;;;;;;;;;;5021363;28;20054;-91
2022/09/29 06:03:09;;;;;;;6.80;6.07;;;;;;;;;;5020671;28;20099;-91
2022/09/29 06:05:38;;;;;;;6.55;5.80;;;;;;;;;;5008580;28;20100;-91
2022/09/29 06:08:04;;;;;;;5.95;5.35;;;;;;;;;;5019720;28;20053;-91
2022/09/29 06:10:31;;;;;;;8.18;6.15;;;;;;;;;;5021425;28;20042;-91
2022/09/29 06:12:57;;;;;;;7.45;6.55;;;;;;;;;;5015533;28;20073;-92
2022/09/29 06:15:25;;;;;;;7.25;6.05;;;;;;;;;;4996081;28;20050;-91
2022/09/29 06:17:55;;;;;;;7.63;6.93;;;;;;;;;;4999803;28;20054;-92
2022/09/29 06:20:21;;;;;;;7.47;6.03;;;;;;;;;;4997679;28;20066;-89
2022/09/29 06:22:50;;;;;;;8.43;4.93;;;;;;;;;;5018065;28;20457;-89
2022/09/29 06:25:16;;;;;;;8.07;6.22;;;;;;;;;;5000205;28;20138;-90
2022/09/29 06:27:43;;;;;;;6.78;3.88;;;;;;;;;;5019620;28;20049;-90
2022/09/29 06:30:11;;;;;;;3.67;3.22;;;;;;;;;;5015356;28;20542;-90
2022/09/29 06:32:39;;;;;;;6.03;4.70;;;;;;;;;;4999260;28;20042;-90
2022/09/29 06:37:50;;;;;;;7.60;3.97;;;;;;;;;;5003223;28;20072;-90
2022/09/29 06:40:19;;;;;;;4.68;4.13;;;;;;;;;;5021214;28;20109;-90
2022/09/29 06:42:45;;;;;;;6.18;4.10;;;;;;;;;;5020908;28;20050;-89
2022/09/29 06:45:12;;;;;;;5.38;3.78;;;;;;;;;;5019694;28;20747;-90
2022/09/29 06:47:40;;;;;;;7.20;5.38;;;;;;;;;;5016518;28;20054;-90
2022/09/29 06:50:08;;;;;;;4.15;3.78;;;;;;;;;;5013902;28;20038;-90
2022/09/29 06:52:35;;;;;;;7.13;5.28;;;;;;;;;;5013430;28;20049;-89
2022/09/29 06:55:01;;;;;;;4.75;4.38;;;;;;;;;;5011906;28;20068;-89
2022/09/29 06:57:28;;;;;;;5.10;4.70;;;;;;;;;;5013764;28;20046;-90
2022/09/29 06:59:54;;;;;;;6.78;5.72;;;;;;;;;;5013388;28;20901;-90
2022/09/29 07:02:21;;;;;;;5.43;4.75;;;;;;;;;;5012746;28;20045;-90
2022/09/29 07:04:49;;;;;;;4.95;4.47;;;;;;;;;;5006419;28;20074;-90
2022/09/29 07:37:57;;;;;;;9.40;5.90;;;;;;;;;;4980806;23;20057;-84
2022/09/29 07:49:57;;;;;;;7.53;3.97;;;;;;;;;;5003951;28;20081;-82
2022/09/29 07:52:23;;;;;;;7.35;6.75;;;;;;;;;;5000874;28;20093;-81
2022/09/29 08:04:18;;;;;;;3.60;2.88;;;;;;;;;;5020622;28;20153;-81
2022/09/29 08:06:46;;;;;;;2.90;2.58;;;;;;;;;;5021943;28;20043;-83
2022/09/29 08:09:13;;;;;;;3.17;2.78;;;;;;;;;;5006633;28;20043;-83
2022/09/29 08:11:40;;;;;;;4.50;3.70;;;;;;;;;;5007102;28;20093;-82
2022/09/29 08:23:53;;;;;;;4.47;4.07;;;;;;;;;;5000486;28;20129;-84
2022/09/29 08:26:22;;;;;;;4.05;3.80;;;;;;;;;;5001300;28;20046;-82
2022/09/29 08:35:14;;;;;;;3.92;3.70;;;;;;;;;;5018882;28;20057;-80
2022/09/29 08:37:40;;;;;;;4.72;4.28;;;;;;;;;;5011580;28;20046;-80
2022/09/29 08:40:07;;;;;;;3.67;3.42;;;;;;;;;;5002058;28;20101;-80
2022/09/29 08:42:41;;;;;;;2.85;2.65;;;;;;;;;;4991981;28;20466;-79
2022/09/29 08:45:13;;;;;;;2.63;2.33;;;;;;;;;;5001331;28;20065;-80
2022/09/29 08:47:42;;;;;;;2.90;2.70;;;;;;;;;;5006944;28;20050;-82
2022/09/29 08:50:12;;;;;;;2.60;2.38;;;;;;;;;;5006300;28;20085;-81
2022/09/29 08:52:40;;;;;;;2.42;2.25;;;;;;;;;;5006399;28;20043;-82
2022/09/29 08:55:21;;;;;;;3.55;3.08;;;;;;;;;;5005912;28;20058;-81
2022/09/29 08:57:50;;;;;;;3.40;3.08;;;;;;;;;;5005234;28;20070;-81
2022/09/29 09:00:18;;;;;;;3.72;3.42;;;;;;;;;;5006156;28;20085;-81
2022/09/29 09:03:04;;;;;;;3.42;2.83;;;;;;;;;;5005604;28;20051;-81
2022/09/29 09:05:38;;;;;;;4.53;4.30;;;;;;;;;;5012301;28;20053;-83
2022/09/29 09:08:07;;;;;;;3.03;2.78;;;;;;;;;;5013297;28;20050;-81
2022/09/29 09:10:39;;;;;;;4.25;3.95;;;;;;;;;;5006136;28;20083;-80
2022/09/29 09:13:16;;;;;;;4.15;3.95;;;;;;;;;;5004993;28;20699;-81
2022/09/29 09:15:54;;;;;;;2.70;2.58;;;;;;;;;;5006163;28;20129;-80
2022/09/29 09:18:29;;;;;;;2.95;2.58;;;;;;;;;;5005521;28;20073;-80
2022/09/29 09:21:00;;;;;;;4.22;3.88;;;;;;;;;;5005604;28;20050;-80
2022/09/29 09:23:32;;;;;;;4.18;3.88;;;;;;;;;;5005637;28;20537;-80
2022/09/29 09:26:01;;;;;;;2.97;2.78;;;;;;;;;;5005023;28;20089;-80
2022/09/29 09:28:32;;;;;;;4.13;3.83;;;;;;;;;;5003039;28;20047;-80
2022/09/29 09:31:01;;;;;;;3.65;3.25;;;;;;;;;;5005726;28;20054;-79
2022/09/29 09:33:30;;;;;;;3.40;3.17;;;;;;;;;;5005417;28;20065;-79
2022/09/29 09:35:59;;;;;;;3.60;3.28;;;;;;;;;;5024584;28;20109;-79
2022/09/29 09:38:27;;;;;;;3.90;3.67;;;;;;;;;;5024611;28;20625;-80
2022/09/29 09:40:55;;;;;;;3.45;2.83;;;;;;;;;;5025077;28;20046;-79
2022/09/29 09:43:23;;;;;;;3.75;3.50;;;;;;;;;;5013094;28;20038;-79
2022/09/29 09:45:55;;;;;;;3.17;2.80;;;;;;;;;;5005297;28;20050;-80
2022/09/29 09:48:26;;;;;;;3.40;3.20;;;;;;;;;;5005034;28;20057;-81
2022/09/29 09:50:52;;;;;;;4.20;3.88;;;;;;;;;;5005009;28;20077;-80
2022/09/29 09:53:22;;;;;;;4.70;4.43;;;;;;;;;;5005173;28;20073;-81
2022/09/29 09:55:53;;;;;;;3.55;3.35;;;;;;;;;;5005195;28;20086;-81
2022/09/29 09:58:27;;;;;;;5.45;4.95;;;;;;;;;;5005149;28;20088;-80
2022/09/29 10:00:57;;;;;;;4.63;4.32;;;;;;;;;;5010104;28;20148;-80
2022/09/29 10:03:24;;;;;;;3.15;2.95;;;;;;;;;;5013555;28;20275;-83
2022/09/29 10:05:50;;;;;;;4.78;4.40;;;;;;;;;;5005135;28;20054;-83
2022/09/29 10:08:21;;;;;;;5.47;5.15;;;;;;;;;;5005077;28;20124;-86
2022/09/29 10:10:48;;;;;;;4.10;3.80;;;;;;;;;;5005054;28;20054;-85
2022/09/29 10:13:15;;;;;;;5.18;4.75;;;;;;;;;;5004390;28;20110;-84
2022/09/29 10:15:43;;;;;;;3.58;3.28;;;;;;;;;;5024150;28;20621;-84
2022/09/29 10:18:13;;;;;;;4.80;4.50;;;;;;;;;;5014998;28;20120;-84
2022/09/29 10:20:40;;;;;;;3.05;2.83;;;;;;;;;;5004728;28;20086;-86
2022/09/29 10:23:20;;;;;;;3.85;3.58;;;;;;;;;;5004751;28;20070;-84
2022/09/29 10:25:52;;;;;;;4.15;3.50;;;;;;;;;;5004642;28;20065;-85
2022/09/29 10:28:18;;;;;;;4.32;3.92;;;;;;;;;;5004789;28;20073;-84
2022/09/29 10:30:45;;;;;;;5.43;5.10;;;;;;;;;;5004424;28;20046;-85
2022/09/29 10:33:15;;;;;;;4.03;3.78;;;;;;;;;;5006876;28;20042;-83
2022/09/29 10:35:42;;;;;;;4.72;4.00;;;;;;;;;;4990204;28;20063;-85
2022/09/29 10:38:15;;;;;;;3.08;2.88;;;;;;;;;;4973172;28;20051;-84
2022/09/29 10:40:53;;;;;;;3.28;2.97;;;;;;;;;;4977936;28;20187;-83
2022/09/29 10:43:23;;;;;;;4.63;4.30;;;;;;;;;;4975941;28;20070;-84
2022/09/29 10:45:50;;;;;;;2.40;2.20;;;;;;;;;;4979610;28;20114;-86
2022/09/29 10:48:18;;;;;;;6.07;5.72;;;;;;;;;;4976510;28;20051;-83
2022/09/29 10:50:49;;;;;;;4.75;4.53;;;;;;;;;;4985268;28;20066;-85
2022/09/29 10:53:21;;;;;;;4.38;4.03;;;;;;;;;;4983607;28;20568;-84
2022/09/29 10:55:50;;;;;;;3.65;3.45;;;;;;;;;;4969371;28;20087;-85
2022/09/29 10:58:20;;;;;;;3.03;2.70;;;;;;;;;;4970674;28;20051;-84
2022/09/29 11:00:47;;;;;;;4.00;3.70;;;;;;;;;;5087402;23;20398;-82
2022/09/29 11:03:19;;;;;;;3.67;3.40;;;;;;;;;;5004721;28;20046;-85
2022/09/29 11:05:51;;;;;;;3.88;3.67;;;;;;;;;;5005701;28;20109;-83
2022/09/29 11:08:18;;;;;;;3.85;3.65;;;;;;;;;;5005881;28;20042;-82
2022/09/29 11:10:46;;;;;;;5.40;5.00;;;;;;;;;;5005803;28;20046;-86
2022/09/29 11:13:33;;;;;;;4.90;4.57;;;;;;;;;;5006131;28;20047;-85
2022/09/29 11:16:03;;;;;;;4.65;4.43;;;;;;;;;;5004811;28;20108;-82
2022/09/29 11:18:30;;;;;;;;;;;;;;;;;;5006345;28;20047;-83
2022/09/29 11:21:02;;;;;;;3.72;3.50;;;;;;;;;;5005786;28;19950;-84
2022/09/29 11:23:31;;;;;;;4.65;4.35;;;;;;;;;;5005826;28;20046;-82
2022/09/29 11:26:16;;;;;;;4.53;4.18;;;;;;;;;;5005870;28;20046;-82
2022/09/29 11:28:50;;;;;;;3.25;3.03;;;;;;;;;;5005447;28;20042;-83
2022/09/29 11:31:32;;;;;;;2.15;2.03;;;;;;;;;;5004700;28;20106;-82
2022/09/29 11:34:05;;;;;;;2.90;2.63;;;;;;;;;;5004567;28;20046;-83
2022/09/29 11:36:37;;;;;;;2.88;2.53;;;;;;;;;;5005241;28;20077;-81
2022/09/29 11:39:12;;;;;;;4.00;3.70;;;;;;;;;;5005458;28;20046;-82
2022/09/29 11:41:48;;;;;;;3.78;3.58;;;;;;;;;;5005563;28;20096;-83
2022/09/29 11:44:23;;;;;;;3.53;2.58;;;;;;;;;;5005338;28;20042;-82
2022/09/29 11:46:58;;;;;;;6.40;6.00;;;;;;;;;;5004520;28;20050;-82
2022/09/29 11:49:34;;;;;;;3.90;3.60;;;;;;;;;;5003684;28;20050;-82
2022/09/29 11:52:08;;;;;;;4.85;4.65;;;;;;;;;;4985781;28;20074;-81
2022/09/29 11:54:41;;;;;;;5.57;5.28;;;;;;;;;;4985768;28;20051;-84
2022/09/29 11:57:10;;;;;;;4.45;4.25;;;;;;;;;;4985615;28;20098;-84
2022/09/29 11:59:54;;;;;;;5.32;4.93;;;;;;;;;;4985485;28;20050;-84
2022/09/29 12:02:29;;;;;;;4.50;4.10;;;;;;;;;;4999983;28;20101;-84
2022/09/29 12:04:58;;;;;;;4.32;4.13;;;;;;;;;;5004788;28;20145;-84
2022/09/29 12:07:33;;;;;;;4.53;4.15;;;;;;;;;;4966500;29;20114;-83
2022/09/29 12:10:29;;;;;;;3.95;3.65;;;;;;;;;;4966267;29;20043;-83
2022/09/29 12:12:58;;;;;;;4.85;4.63;;;;;;;;;;4906518;29;20052;-84
2022/09/29 12:15:31;;;;;;;3.33;2.92;;;;;;;;;;4954862;29;20043;-84
2022/09/29 12:17:59;;;;;;;5.38;4.15;;;;;;;;;;5008160;28;20104;-84
2022/09/29 12:20:28;;;;;;;4.03;3.72;;;;;;;;;;5008590;28;20050;-84
2022/09/29 12:22:57;;;;;;;4.40;4.10;;;;;;;;;;4999796;28;20046;-84
2022/09/29 12:25:25;;;;;;;3.13;2.92;;;;;;;;;;4988852;28;20113;-84
2022/09/29 12:27:52;;;;;;;4.45;4.22;;;;;;;;;;4988982;28;20047;-85
2022/09/29 12:30:21;;;;;;;3.17;2.95;;;;;;;;;;4989092;28;20046;-84
2022/09/29 12:32:51;;;;;;;2.83;2.63;;;;;;;;;;5005114;28;20632;-84
2022/09/29 12:35:17;;;;;;;;;;;;;;;;;;5008717;28;20062;-84
2022/09/29 12:37:48;;;;;;;4.32;4.03;;;;;;;;;;5000059;28;19970;-84
2022/09/29 12:40:20;;;;;;;5.65;5.15;;;;;;;;;;4981672;28;20108;-84
2022/09/29 12:43:02;;;;;;;4.72;4.32;;;;;;;;;;4985925;28;20050;-84
2022/09/29 12:45:29;;;;;;;;;;;;;;;;;;4985800;28;20047;-83
2022/09/29 12:48:01;;;;;;;3.25;3.03;;;;;;;;;;5001264;28;19922;-83
2022/09/29 12:50:29;;;;;;;4.57;4.25;;;;;;;;;;5004733;28;20078;-83
2022/09/29 12:52:58;;;;;;;5.03;4.70;;;;;;;;;;5004800;28;20052;-83
2022/09/29 14:33:53;;;;;;;3.38;3.08;;;;;;;;;;6165737;22;1379344;-91
2022/09/29 14:36:21;;;;;;;4.18;3.88;;;;;;;;;;6223637;23;20056;-92
2022/09/29 14:38:49;;;;;;;4.20;2.78;;;;;;;;;;6224153;23;20353;-91
2022/09/29 14:41:22;;;;;;;3.85;2.33;;;;;;;;;;6224143;23;20103;-91
2022/09/29 14:43:50;;;;;;;3.75;3.35;;;;;;;;;;6223768;23;20026;-92
2022/09/29 14:52:22;;;;;;;3.40;2.58;;;;;;;;;;6223873;23;20032;-92
2022/09/29 14:54:55;;;;;;;3.60;2.72;;;;;;;;;;6223219;23;20024;-91
2022/09/29 14:57:33;;;;;;;3.88;3.58;;;;;;;;;;6223754;23;20100;-90
2022/09/29 15:00:06;;;;;;;4.57;4.22;;;;;;;;;;6223985;23;20020;-92
2022/09/29 15:02:34;;;;;;;3.25;2.95;;;;;;;;;;6223312;23;20025;-91
2022/09/29 15:05:11;;;;;;;2.70;2.50;;;;;;;;;;6224075;23;20043;-93
2022/09/29 15:07:41;;;;;;;4.20;2.75;;;;;;;;;;6223552;23;20074;-93
2022/09/29 15:10:19;;;;;;;3.72;3.35;;;;;;;;;;6218690;23;20021;-93
2022/09/29 15:12:50;;;;;;;4.63;4.28;;;;;;;;;;6219825;23;20083;-92
2022/09/29 15:15:34;;;;;;;4.45;4.05;;;;;;;;;;6223214;23;20027;-92
2022/09/29 15:18:02;;;;;;;5.50;5.20;;;;;;;;;;6222837;23;20095;-91
2022/09/29 15:20:32;;;;;;;3.22;2.40;;;;;;;;;;6223844;23;20024;-92
2022/09/29 15:23:17;;;;;;;2.85;2.60;;;;;;;;;;6224070;23;20090;-93
2022/09/29 15:25:45;;;;;;;3.70;3.10;;;;;;;;;;6219969;23;20021;-90
2022/09/29 15:28:14;;;;;;;3.67;3.38;;;;;;;;;;6216890;23;20017;-92
2022/09/29 15:30:40;;;;;;;5.70;2.90;;;;;;;;;;6216549;23;20339;-92
2022/09/29 15:33:14;;;;;;;4.85;4.43;;;;;;;;;;6214090;23;20024;-93
2022/09/29 15:35:43;;;;;;;3.25;3.05;;;;;;;;;;6214556;23;20017;-92
2022/09/29 15:38:16;;;;;;;6.07;3.65;;;;;;;;;;6214656;23;20453;-92
2022/09/29 15:40:44;;;;;;;3.83;3.25;;;;;;;;;;6214971;23;20079;-92
2022/09/29 15:43:22;;;;;;;3.92;3.20;;;;;;;;;;6214603;23;20404;-92
2022/09/29 15:45:58;;;;;;;3.85;3.55;;;;;;;;;;6215162;23;20407;-91
2022/09/29 15:48:25;;;;;;;5.07;4.05;;;;;;;;;;6214234;23;20454;-92
2022/09/29 15:50:52;;;;;;;5.70;5.20;;;;;;;;;;6215337;23;20100;-92
2022/09/29 15:53:19;;;;;;;5.70;5.13;;;;;;;;;;6214885;23;20021;-92
2022/09/29 15:55:45;;;;;;;4.30;3.90;;;;;;;;;;6214851;23;20102;-91
2022/09/29 15:58:39;;;;;;;5.43;4.05;;;;;;;;;;6215285;23;20350;-92
2022/09/29 16:01:07;;;;;;;3.70;3.40;;;;;;;;;;6122502;23;20037;-91
2022/09/29 16:03:39;;;;;;;3.70;2.53;;;;;;;;;;6120096;23;20351;-92
2022/09/29 16:06:10;;;;;;;3.90;3.53;;;;;;;;;;6121374;23;20422;-92
2022/09/29 16:08:39;;;;;;;5.53;4.28;;;;;;;;;;6122516;23;20029;-92
2022/09/29 16:11:07;;;;;;;3.53;3.22;;;;;;;;;;6122560;23;20022;-92
2022/09/29 16:13:35;;;;;;;5.15;4.45;;;;;;;;;;6122607;23;20486;-92
2022/09/29 16:16:03;;;;;;;4.40;4.00;;;;;;;;;;6122169;23;20053;-92
2022/09/29 16:18:32;;;;;;;4.50;3.90;;;;;;;;;;6122311;23;20458;-93
2022/09/29 16:20:59;;;;;;;5.43;5.07;;;;;;;;;;6122486;23;20060;-92
2022/09/29 16:23:27;;;;;;;4.88;4.47;;;;;;;;;;6122240;23;20497;-93
2022/09/29 16:26:10;;;;;;;4.90;3.55;;;;;;;;;;6121924;23;20065;-93
2022/09/29 16:28:38;;;;;;;3.80;3.50;;;;;;;;;;6122377;23;20488;-92
2022/09/29 16:31:06;;;;;;;5.22;4.72;;;;;;;;;;6122353;23;20510;-93
2022/09/29 16:33:34;;;;;;;3.67;2.75;;;;;;;;;;6122349;23;20022;-93
2022/09/29 16:36:02;;;;;;;4.90;4.50;;;;;;;;;;6126202;23;20026;-92
2022/09/29 16:38:33;;;;;;;5.07;4.68;;;;;;;;;;6153952;23;20053;-93
2022/09/29 16:41:00;;;;;;;4.40;3.13;;;;;;;;;;6154582;23;20528;-93
2022/09/29 16:43:29;;;;;;;3.72;3.38;;;;;;;;;;6154844;23;20096;-92
2022/09/29 16:45:56;;;;;;;5.88;5.47;;;;;;;;;;6154673;23;20402;-92
2022/09/29 16:48:24;;;;;;;4.35;4.05;;;;;;;;;;6154717;23;20021;-92
2022/09/29 16:50:55;;;;;;;3.80;3.50;;;;;;;;;;6154763;23;20056;-93
2022/09/29 16:53:23;;;;;;;3.92;3.47;;;;;;;;;;6154555;23;20112;-93
2022/09/29 16:55:57;;;;;;;5.13;4.05;;;;;;;;;;6153713;23;20088;-93
2022/09/29 16:58:24;;;;;;;6.13;5.72;;;;;;;;;;6153626;23;20431;-92
2022/09/29 17:00:51;;;;;;;4.10;3.78;;;;;;;;;;6154637;23;20080;-92
2022/09/29 17:03:17;;;;;;;5.00;3.50;;;;;;;;;;6151795;23;20466;-93
2022/09/29 17:05:46;;;;;;;4.35;4.00;;;;;;;;;;6153740;23;20028;-93
2022/09/29 17:08:16;;;;;;;4.30;4.00;;;;;;;;;;6154242;23;20076;-93
2022/09/29 17:10:42;;;;;;;3.70;3.35;;;;;;;;;;6154527;23;20076;-93
2022/09/29 17:13:10;;;;;;;3.95;3.65;;;;;;;;;;6154662;23;20025;-93
2022/09/29 17:15:37;;;;;;;3.95;3.25;;;;;;;;;;6154260;23;20022;-93
2022/09/29 17:18:03;;;;;;;3.20;2.90;;;;;;;;;;6154542;23;20022;-92
2022/09/29 17:20:30;;;;;;;4.78;4.40;;;;;;;;;;6154427;23;20446;-91
2022/09/29 17:22:57;;;;;;;4.20;3.88;;;;;;;;;;6154135;23;20026;-93
2022/09/29 17:28:28;;;;;;;4.30;3.97;;;;;;;;;;6153661;23;20024;-92
2022/09/29 17:30:55;;;;;;;5.47;3.22;;;;;;;;;;6152789;23;20438;-93
2022/09/29 17:33:21;;;;;;;3.95;3.65;;;;;;;;;;6198669;23;20021;-93
2022/09/29 17:35:50;;;;;;;5.93;3.72;;;;;;;;;;6214126;23;20024;-92
2022/09/29 17:38:17;;;;;;;5.05;3.97;;;;;;;;;;6213937;23;20368;-94
2022/09/29 17:40:48;;;;;;;6.50;5.90;;;;;;;;;;6213931;23;20377;-95
2022/09/29 17:43:15;;;;;;;3.58;2.70;;;;;;;;;;6214402;23;20044;-95
2022/09/29 17:45:44;;;;;;;5.88;2.88;;;;;;;;;;6214454;23;20115;-95
2022/09/29 17:48:11;;;;;;;4.10;2.67;;;;;;;;;;6214271;23;20098;-95
2022/09/29 17:50:40;;;;;;;3.58;3.03;;;;;;;;;;6211802;23;20029;-95